createdAt,value
2023-03-22T00:01:17.179Z,98968.00
2023-03-22T00:03:44.117Z,98960.00
2023-03-22T00:06:11.419Z,98962.00
2023-03-22T00:08:39.133Z,98964.00
2023-03-22T00:11:07.361Z,98966.00
2023-03-22T00:13:36.447Z,98956.00
2023-03-22T00:16:05.296Z,98959.00
2023-03-22T00:18:32.394Z,98956.00
2023-03-22T00:21:00.688Z,98952.00
2023-03-22T00:23:29.612Z,98968.00
2023-03-22T00:25:57.122Z,98968.00
2023-03-22T00:28:24.980Z,98972.00
2023-03-22T00:30:58.651Z,98975.00
2023-03-22T00:33:25.999Z,98978.00
2023-03-22T00:36:02.253Z,98974.00
2023-03-22T00:38:43.755Z,98965.00
2023-03-22T00:41:28.846Z,98961.00
2023-03-22T00:43:55.768Z,98956.00
2023-03-22T00:46:22.822Z,98956.00
2023-03-22T00:48:49.837Z,98953.00
2023-03-22T00:51:18.056Z,98943.00
2023-03-22T00:53:45.600Z,98943.00
2023-03-22T00:56:14.266Z,98931.00
2023-03-22T00:58:42.610Z,98939.00
2023-03-22T01:01:13.587Z,98948.00
2023-03-22T01:03:42.777Z,98938.00
2023-03-22T01:06:10.593Z,98946.00
2023-03-22T01:08:39.041Z,98932.00
2023-03-22T01:11:07.533Z,98931.00
2023-03-22T01:13:41.870Z,98925.00
2023-03-22T01:16:10.890Z,98924.00
2023-03-22T01:18:37.899Z,98916.00
2023-03-22T01:21:06.093Z,98909.00
2023-03-22T01:23:33.193Z,98904.00
2023-03-22T01:26:01.337Z,98911.00
2023-03-22T01:28:29.336Z,98910.00
2023-03-22T01:31:00.623Z,98908.00
2023-03-22T01:33:27.450Z,98896.00
2023-03-22T01:35:54.272Z,98904.00
2023-03-22T01:38:21.661Z,98899.00
2023-03-22T01:40:48.563Z,98902.00
2023-03-22T01:43:17.200Z,98902.00
2023-03-22T01:45:50.524Z,98903.00
2023-03-22T01:48:35.823Z,98893.00
2023-03-22T01:51:13.314Z,98897.00
2023-03-22T01:53:50.360Z,98891.00
2023-03-22T01:56:23.613Z,98891.00
2023-03-22T01:58:55.022Z,98890.00
2023-03-22T02:01:23.126Z,98885.00
2023-03-22T02:04:10.007Z,98886.00
2023-03-22T02:06:39.237Z,98884.00
2023-03-22T02:09:11.125Z,98888.00
2023-03-22T02:11:46.524Z,98882.00
2023-03-22T02:14:34.458Z,98889.00
2023-03-22T02:17:29.362Z,98884.00
2023-03-22T02:20:31.459Z,98882.00
2023-03-22T02:23:20.305Z,98880.00
2023-03-22T02:26:27.124Z,98872.00
2023-03-22T02:29:22.351Z,98877.00
2023-03-22T02:32:29.175Z,98866.00
2023-03-22T02:35:37.122Z,98870.00
2023-03-22T02:38:37.850Z,98864.00
2023-03-22T02:41:09.147Z,98864.00
2023-03-22T02:44:03.745Z,98868.00
2023-03-22T02:46:45.043Z,98849.00
2023-03-22T02:49:35.526Z,98856.00
2023-03-22T02:52:17.274Z,98863.00
2023-03-22T02:54:49.582Z,98861.00
2023-03-22T02:57:36.210Z,98871.00
2023-03-22T03:00:11.483Z,98864.00
2023-03-22T03:02:51.245Z,98866.00
2023-03-22T03:05:20.732Z,98861.00
2023-03-22T03:07:54.724Z,98861.00
2023-03-22T03:10:23.745Z,98864.00
2023-03-22T03:12:50.636Z,98859.00
2023-03-22T03:15:21.278Z,98859.00
2023-03-22T03:18:22.842Z,98872.00
2023-03-22T03:21:17.130Z,98870.00
2023-03-22T03:24:23.291Z,98865.00
2023-03-22T03:27:02.535Z,98859.00
2023-03-22T03:29:57.074Z,98855.00
2023-03-22T03:32:35.976Z,98857.00
2023-03-22T03:35:22.529Z,98856.00
2023-03-22T03:38:08.814Z,98860.00
2023-03-22T03:40:43.392Z,98856.00
2023-03-22T03:43:11.361Z,98849.00
2023-03-22T03:45:39.722Z,98859.00
2023-03-22T03:48:18.530Z,98856.00
2023-03-22T03:50:48.277Z,98845.00
2023-03-22T03:53:15.732Z,98860.00
2023-03-22T03:55:42.734Z,98851.00
2023-03-22T03:58:09.989Z,98854.00
2023-03-22T04:00:38.285Z,98857.00
2023-03-22T04:03:06.667Z,98865.00
2023-03-22T04:05:33.998Z,98866.00
2023-03-22T04:08:00.892Z,98862.00
2023-03-22T04:10:27.777Z,98869.00
2023-03-22T04:12:54.662Z,98863.00
2023-03-22T04:15:21.727Z,98853.00
2023-03-22T04:17:48.658Z,98864.00
2023-03-22T04:20:15.847Z,98861.00
2023-03-22T04:22:42.901Z,98856.00
2023-03-22T04:25:15.005Z,98854.00
2023-03-22T04:27:42.806Z,98863.00
2023-03-22T04:30:18.904Z,98862.00
2023-03-22T04:32:47.639Z,98852.00
2023-03-22T04:35:15.682Z,98864.00
2023-03-22T04:37:43.082Z,98850.00
2023-03-22T04:40:16.583Z,98841.00
2023-03-22T04:42:45.501Z,98842.00
2023-03-22T04:45:14.021Z,98836.00
2023-03-22T04:47:41.116Z,98847.00
2023-03-22T04:50:09.367Z,98837.00
2023-03-22T04:52:36.202Z,98836.00
2023-03-22T04:55:03.418Z,98833.00
2023-03-22T04:57:30.407Z,98833.00
2023-03-22T04:59:57.205Z,98821.00
2023-03-22T05:02:24.094Z,98820.00
2023-03-22T05:04:51.041Z,98826.00
2023-03-22T05:07:17.886Z,98825.00
2023-03-22T05:09:44.730Z,98826.00
2023-03-22T05:12:12.046Z,98825.00
2023-03-22T05:14:38.906Z,98826.00
2023-03-22T05:17:05.903Z,98812.00
2023-03-22T05:19:33.097Z,98828.00
2023-03-22T05:22:02.020Z,98818.00
2023-03-22T05:24:31.153Z,98829.00
2023-03-22T05:27:01.036Z,98824.00
2023-03-22T05:29:28.648Z,98828.00
2023-03-22T05:31:55.470Z,98823.00
2023-03-22T05:34:22.442Z,98834.00
2023-03-22T05:36:51.463Z,98830.00
2023-03-22T05:39:18.468Z,98834.00
2023-03-22T05:41:46.619Z,98831.00
2023-03-22T05:44:13.571Z,98842.00
2023-03-22T05:46:40.473Z,98844.00
2023-03-22T05:49:07.782Z,98852.00
2023-03-22T05:51:41.538Z,98850.00
2023-03-22T05:54:09.687Z,98848.00
2023-03-22T05:56:36.963Z,98848.00
2023-03-22T05:59:05.148Z,98850.00
2023-03-22T06:01:33.498Z,98836.00
2023-03-22T06:04:00.849Z,98835.00
2023-03-22T06:06:30.393Z,98849.00
2023-03-22T06:09:07.217Z,98845.00
2023-03-22T06:11:42.979Z,98847.00
2023-03-22T06:14:09.975Z,98843.00
2023-03-22T06:16:46.074Z,98844.00
2023-03-22T06:19:17.358Z,98836.00
2023-03-22T06:21:44.543Z,98845.00
2023-03-22T06:24:11.595Z,98845.00
2023-03-22T06:26:38.442Z,98850.00
2023-03-22T06:29:05.349Z,98843.00
2023-03-22T06:31:32.649Z,98848.00
2023-03-22T06:33:59.626Z,98844.00
2023-03-22T06:36:26.514Z,98845.00
2023-03-22T06:38:54.069Z,98843.00
2023-03-22T06:41:27.722Z,98851.00
2023-03-22T06:44:22.945Z,98853.00
2023-03-22T06:46:49.946Z,98863.00
2023-03-22T06:49:19.218Z,98848.00
2023-03-22T06:51:46.129Z,98848.00
2023-03-22T06:54:13.315Z,98850.00
2023-03-22T06:56:40.359Z,98846.00
2023-03-22T06:59:07.169Z,98843.00
2023-03-22T07:01:34.198Z,98843.00
2023-03-22T07:04:01.186Z,98840.00
2023-03-22T07:06:28.944Z,98838.00
2023-03-22T07:08:55.839Z,98848.00
2023-03-22T07:11:22.713Z,98844.00
2023-03-22T07:13:49.510Z,98838.00
2023-03-22T07:16:18.129Z,98838.00
2023-03-22T07:18:48.299Z,98838.00
2023-03-22T07:21:15.693Z,98837.00
2023-03-22T07:23:42.783Z,98840.00
2023-03-22T07:26:09.902Z,98828.00
2023-03-22T07:28:36.962Z,98825.00
2023-03-22T07:31:07.932Z,98823.00
2023-03-22T07:33:48.568Z,98823.00
2023-03-22T07:36:16.885Z,98830.00
2023-03-22T07:38:46.263Z,98831.00
2023-03-22T07:41:28.224Z,98820.00
2023-03-22T07:44:32.823Z,98817.00
2023-03-22T07:47:05.129Z,98820.00
2023-03-22T07:49:32.437Z,98819.00
2023-03-22T07:52:04.574Z,98818.00
2023-03-22T07:54:34.242Z,98817.00
2023-03-22T07:57:01.834Z,98816.00
2023-03-22T07:59:29.337Z,98822.00
2023-03-22T08:01:56.632Z,98820.00
2023-03-22T08:08:37.915Z,98828.00
2023-03-22T08:11:06.630Z,98831.00
2023-03-22T08:13:34.364Z,98823.00
2023-03-22T08:16:01.736Z,98828.00
2023-03-22T08:18:28.724Z,98838.00
2023-03-22T08:20:58.146Z,98836.00
2023-03-22T08:23:40.519Z,98831.00
2023-03-22T08:26:14.792Z,98840.00
2023-03-22T08:28:53.064Z,98825.00
2023-03-22T08:31:34.294Z,98829.00
2023-03-22T08:36:59.323Z,98818.00
2023-03-22T08:39:52.855Z,98807.00
2023-03-22T08:42:26.102Z,98809.00
2023-03-22T08:44:59.331Z,98806.00
2023-03-22T08:47:42.171Z,98804.00
2023-03-22T08:50:27.641Z,98800.00
2023-03-22T08:52:54.651Z,98801.00
2023-03-22T08:55:46.163Z,98791.00
2023-03-22T09:02:31.809Z,98795.00
2023-03-22T09:06:05.166Z,98795.00
2023-03-22T09:09:31.988Z,98786.00
2023-03-22T09:12:16.635Z,98782.00
2023-03-22T09:15:02.037Z,98791.00
2023-03-22T09:17:49.969Z,98782.00
2023-03-22T09:20:21.687Z,98781.00
2023-03-22T09:22:57.588Z,98783.00
2023-03-22T09:25:34.859Z,98780.00
2023-03-22T09:30:53.693Z,98781.00
2023-03-22T09:33:36.461Z,98781.00
2023-03-22T09:36:28.635Z,98781.00
2023-03-22T09:38:59.033Z,98779.00
2023-03-22T09:41:39.424Z,98781.00
2023-03-22T09:44:36.345Z,98776.00
2023-03-22T09:47:11.250Z,98770.00
2023-03-22T09:49:53.426Z,98769.00
2023-03-22T09:52:21.835Z,98755.00
2023-03-22T09:54:53.017Z,98768.00
2023-03-22T09:57:37.458Z,98753.00
2023-03-22T10:00:43.513Z,98758.00
2023-03-22T10:03:54.525Z,98756.00
2023-03-22T10:06:29.288Z,98748.00
2023-03-22T10:09:16.535Z,98743.00
2023-03-22T10:12:00.430Z,98733.00
2023-03-22T10:14:51.421Z,98731.00
2023-03-22T10:17:25.591Z,98733.00
2023-03-22T10:19:59.940Z,98724.00
2023-03-22T10:22:34.330Z,98725.00
2023-03-22T10:25:03.262Z,98735.00
2023-03-22T10:27:32.071Z,98728.00
2023-03-22T10:30:20.943Z,98724.00
2023-03-22T10:33:22.937Z,98732.00
2023-03-22T10:35:51.778Z,98730.00
2023-03-22T10:38:26.186Z,98717.00
2023-03-22T10:40:57.147Z,98720.00
2023-03-22T10:43:44.542Z,98736.00
2023-03-22T10:46:20.775Z,98719.00
2023-03-22T10:48:51.862Z,98720.00
2023-03-22T10:51:48.449Z,98718.00
2023-03-22T10:54:20.337Z,98721.00
2023-03-22T10:56:47.410Z,98713.00
2023-03-22T10:59:49.279Z,98708.00
2023-03-22T11:02:27.610Z,98702.00
2023-03-22T11:05:04.769Z,98714.00
2023-03-22T11:07:45.323Z,98713.00
2023-03-22T11:10:24.465Z,98707.00
2023-03-22T11:12:56.979Z,98714.00
2023-03-22T11:15:32.433Z,98709.00
2023-03-22T11:18:15.732Z,98703.00
2023-03-22T11:20:57.814Z,98705.00
2023-03-22T11:23:25.945Z,98707.00
2023-03-22T11:26:00.221Z,98696.00
2023-03-22T11:28:35.950Z,98689.00
2023-03-22T11:31:13.528Z,98694.00
2023-03-22T11:33:58.810Z,98694.00
2023-03-22T11:36:27.069Z,98685.00
2023-03-22T11:39:05.809Z,98688.00
2023-03-22T11:41:39.216Z,98680.00
2023-03-22T11:44:13.537Z,98680.00
2023-03-22T11:46:49.258Z,98668.00
2023-03-22T11:49:17.975Z,98691.00
2023-03-22T11:51:45.706Z,98685.00
2023-03-22T11:54:32.645Z,98675.00
2023-03-22T11:57:04.375Z,98689.00
2023-03-22T11:59:39.616Z,98686.00
2023-03-22T12:02:24.074Z,98678.00
2023-03-22T12:05:01.966Z,98664.00
2023-03-22T12:07:32.795Z,98670.00
2023-03-22T12:10:10.755Z,98669.00
2023-03-22T12:12:45.553Z,98663.00
2023-03-22T12:15:24.137Z,98652.00
2023-03-22T12:18:08.205Z,98656.00
2023-03-22T12:20:53.496Z,98644.00
2023-03-22T12:23:25.767Z,98645.00
2023-03-22T12:26:05.933Z,98649.00
2023-03-22T12:28:43.488Z,98644.00
2023-03-22T12:31:21.968Z,98653.00
2023-03-22T12:33:59.521Z,98639.00
2023-03-22T12:36:52.504Z,98636.00
2023-03-22T12:39:28.518Z,98626.00
2023-03-22T12:42:03.760Z,98625.00
2023-03-22T12:44:41.071Z,98622.00
2023-03-22T12:47:17.148Z,98627.00
2023-03-22T12:49:59.330Z,98623.00
2023-03-22T12:52:45.820Z,98628.00
2023-03-22T12:55:27.851Z,98613.00
2023-03-22T12:57:55.648Z,98606.00
2023-03-22T13:00:33.975Z,98612.00
2023-03-22T13:03:16.155Z,98607.00
2023-03-22T13:05:46.967Z,98603.00
2023-03-22T13:08:20.567Z,98591.00
2023-03-22T13:11:06.077Z,98591.00
2023-03-22T13:13:43.831Z,98594.00
2023-03-22T13:16:11.440Z,98594.00
2023-03-22T13:18:58.645Z,98591.00
2023-03-22T13:21:30.497Z,98595.00
2023-03-22T13:24:06.754Z,98586.00
2023-03-22T13:26:55.240Z,98601.00
2023-03-22T13:29:38.441Z,98585.00
2023-03-22T13:32:30.254Z,98569.00
2023-03-22T13:34:57.874Z,98583.00
2023-03-22T13:37:31.753Z,98571.00
2023-03-22T13:40:02.322Z,98572.00
2023-03-22T13:42:39.787Z,98563.00
2023-03-22T13:45:34.253Z,98563.00
2023-03-22T13:48:29.445Z,98567.00
2023-03-22T13:50:58.845Z,98564.00
2023-03-22T13:53:34.104Z,98561.00
2023-03-22T13:56:07.214Z,98550.00
2023-03-22T13:58:53.560Z,98562.00
2023-03-22T14:01:35.381Z,98551.00
2023-03-22T14:04:11.274Z,98556.00
2023-03-22T14:06:51.803Z,98547.00
2023-03-22T14:09:32.543Z,98550.00
2023-03-22T14:12:51.330Z,98556.00
2023-03-22T14:15:25.440Z,98548.00
2023-03-22T14:18:13.056Z,98536.00
2023-03-22T14:20:41.157Z,98534.00
